Time;durP1;ratioP1;P1;durP2;ratioP2;P2;SDS_P1;SDS_P2;PMS_P1;PMS_P2;Temp;Humidity;BMP_temperature;BMP_pressure;BME280_temperature;BME280_humidity;BME280_pressure;Samples;Min_cycle;Max_cycle;Signal;HPM_P1;HPM_P2
2023/11/02 00:02:27;;;;;;;46.50;32.30;;;;;;;11.15;100.00;100279.19;105714;1253;63243;-74
2023/11/02 00:04:56;;;;;;;53.60;36.60;;;;;;;11.10;100.00;100278.97;105733;1254;71618;-76
2023/11/02 00:07:23;;;;;;;56.60;36.50;;;;;;;11.05;100.00;100273.17;105673;1254;61823;-72
2023/11/02 00:11:52;;;;;;;55.40;35.90;;;;;;;10.99;100.00;100279.17;102812;1290;600209;-74
2023/11/02 00:14:20;;;;;;;57.80;32.80;;;;;;;10.93;100.00;100282.25;105165;1271;61745;-74
2023/11/02 00:16:48;;;;;;;50.30;32.60;;;;;;;10.88;100.00;100276.95;105021;1270;59359;-75
2023/11/02 00:19:25;;;;;;;49.60;31.00;;;;;;;10.84;100.00;100276.18;105011;1264;72296;-74
2023/11/02 00:21:54;;;;;;;51.00;31.10;;;;;;;10.79;100.00;100277.55;104980;1263;62456;-74
2023/11/02 00:24:21;;;;;;;47.00;30.10;;;;;;;10.75;100.00;100277.12;104801;1267;228040;-76
2023/11/02 00:26:49;;;;;;;40.30;27.40;;;;;;;10.71;100.00;100279.98;104977;1262;60430;-75
2023/11/02 00:29:17;;;;;;;38.40;28.40;;;;;;;10.67;100.00;100285.13;105171;1262;59211;-76
2023/11/02 00:31:44;;;;;;;38.20;25.50;;;;;;;10.63;100.00;100288.03;105227;1267;72081;-74
2023/11/02 00:34:11;;;;;;;35.60;23.10;;;;;;;10.59;100.00;100289.16;105069;1266;64573;-74
2023/11/02 00:36:39;;;;;;;35.20;24.10;;;;;;;10.55;100.00;100284.34;105717;1260;72615;-76
2023/11/02 00:39:06;;;;;;;34.60;24.30;;;;;;;10.52;100.00;100290.84;105578;1255;60510;-75
2023/11/02 00:41:35;;;;;;;32.30;22.90;;;;;;;10.49;100.00;100289.86;105661;1260;59634;-73
2023/11/02 00:44:04;;;;;;;32.30;23.60;;;;;;;10.45;100.00;100289.39;105644;1254;73824;-75
2023/11/02 00:46:33;;;;;;;33.80;23.70;;;;;;;10.42;100.00;100291.86;105661;1260;63907;-74
2023/11/02 00:49:01;;;;;;;38.60;26.70;;;;;;;10.40;100.00;100299.52;105463;1257;72429;-73
2023/11/02 00:51:30;;;;;;;31.70;23.20;;;;;;;10.36;100.00;100303.58;105787;1258;61325;-73
2023/11/02 00:53:59;;;;;;;41.20;27.30;;;;;;;10.33;100.00;100299.91;105819;1253;61213;-74
2023/11/02 00:56:29;;;;;;;37.10;26.60;;;;;;;10.31;100.00;100305.50;105694;1260;71672;-76
2023/11/02 00:58:56;;;;;;;37.20;27.40;;;;;;;10.28;100.00;100303.57;105715;1254;63689;-77
2023/11/02 01:01:26;;;;;;;41.60;30.00;;;;;;;10.27;100.00;100303.45;105594;1254;71515;-74
2023/11/02 01:03:55;;;;;;;39.50;29.80;;;;;;;10.25;100.00;100306.91;106027;1251;61661;-75
2023/11/02 01:06:27;;;;;;;44.60;31.60;;;;;;;10.23;100.00;100309.27;105900;1252;59983;-72
2023/11/02 01:09:04;;;;;;;40.30;30.00;;;;;;;10.23;100.00;100310.57;105910;1254;73190;-75
2023/11/02 01:11:35;;;;;;;38.20;28.60;;;;;;;10.21;100.00;100320.63;105948;1256;62717;-75
2023/11/02 01:14:13;;;;;;;37.60;26.30;;;;;;;10.19;100.00;100327.72;105989;1254;71462;-73
2023/11/02 01:16:40;;;;;;;26.80;19.90;;;;;;;10.16;100.00;100329.45;105862;1256;60467;-74
2023/11/02 01:19:35;;;;;;;21.20;15.80;;;;;;;10.15;100.00;100330.78;105793;1251;59726;-75
2023/11/02 01:22:03;;;;;;;22.50;14.10;;;;;;;10.13;100.00;100331.38;105889;1255;73150;-76
2023/11/02 01:24:31;;;;;;;15.30;12.30;;;;;;;10.13;100.00;100328.80;105951;1251;63180;-76
2023/11/02 01:27:00;;;;;;;20.30;12.60;;;;;;;10.13;100.00;100328.77;106072;1250;70108;-76
2023/11/02 01:29:28;;;;;;;19.50;14.40;;;;;;;10.14;100.00;100325.41;106014;1254;62056;-74
2023/11/02 01:31:56;;;;;;;24.20;13.80;;;;;;;10.14;100.00;100328.17;105918;1254;60424;-73
2023/11/02 01:34:24;;;;;;;22.80;17.80;;;;;;;10.14;100.00;100327.66;105893;1254;73038;-72
2023/11/02 01:36:54;;;;;;;24.40;17.70;;;;;;;10.15;100.00;100331.45;105869;1251;62405;-73
2023/11/02 01:39:25;;;;;;;25.50;16.10;;;;;;;10.17;100.00;100333.77;105939;1251;72779;-74
2023/11/02 01:41:58;;;;;;;19.20;15.00;;;;;;;10.19;100.00;100334.17;105965;1254;59707;-75
2023/11/02 01:45:19;;;;;;;18.30;15.20;;;;;;;10.23;100.00;100338.67;106027;1252;59945;-74
2023/11/02 01:47:59;;;;;;;21.60;13.90;;;;;;;10.29;100.00;100343.73;105867;1249;73037;-75
2023/11/02 01:50:32;;;;;;;17.90;13.80;;;;;;;10.33;100.00;100346.80;106012;1254;63524;-75
2023/11/02 01:53:16;;;;;;;17.80;14.00;;;;;;;10.37;100.00;100349.70;105943;1251;71818;-77
2023/11/02 01:56:10;;;;;;;17.00;12.90;;;;;;;10.42;100.00;100351.33;105910;1255;60592;-71
2023/11/02 01:58:38;;;;;;;17.90;14.60;;;;;;;10.46;100.00;100357.32;105716;1257;59650;-73
2023/11/02 02:01:25;;;;;;;17.20;14.30;;;;;;;10.48;100.00;100356.81;105996;1251;72958;-74
2023/11/02 02:03:56;;;;;;;17.70;15.00;;;;;;;10.52;100.00;100351.66;105849;1257;62314;-75
2023/11/02 02:06:29;;;;;;;22.60;15.90;;;;;;;10.55;100.00;100354.63;105962;1251;71818;-74
2023/11/02 02:09:28;;;;;;;19.80;15.40;;;;;;;10.58;100.00;100356.71;105994;1254;60604;-73
2023/11/02 02:12:00;;;;;;;19.40;13.70;;;;;;;10.62;100.00;100359.99;106064;1254;59567;-75
2023/11/02 02:15:00;;;;;;;15.00;11.70;;;;;;;10.64;100.00;100357.77;106065;1254;71011;-75
2023/11/02 02:17:35;;;;;;;15.90;13.20;;;;;;;10.66;100.00;100363.04;105335;1258;61622;-75
2023/11/02 02:20:11;;;;;;;16.60;13.40;;;;;;;10.68;100.00;100361.67;105347;1257;72790;-74
2023/11/02 02:22:45;;;;;;;14.80;13.20;;;;;;;10.69;100.00;100364.38;105396;1257;62382;-73
2023/11/02 02:25:24;;;;;;;13.90;11.60;;;;;;;10.71;100.00;100368.33;105522;1258;60014;-73
2023/11/02 02:27:51;;;;;;;16.90;11.70;;;;;;;10.72;100.00;100372.46;105252;1262;72080;-73
2023/11/02 02:30:44;;;;;;;13.30;11.40;;;;;;;10.71;100.00;100375.96;105321;1258;63969;-77
2023/11/02 02:33:20;;;;;;;15.40;11.50;;;;;;;10.71;100.00;100377.91;105390;1262;72432;-74
2023/11/02 02:35:56;;;;;;;15.70;11.90;;;;;;;10.71;100.00;100384.05;105440;1257;61668;-75
2023/11/02 02:38:40;;;;;;;15.00;13.20;;;;;;;10.70;100.00;100386.70;105378;1262;60148;-72
2023/11/02 02:41:08;;;;;;;13.90;11.70;;;;;;;10.70;100.00;100384.80;105251;1257;72324;-76
2023/11/02 02:43:36;;;;;;;14.90;12.70;;;;;;;10.68;100.00;100382.13;105446;1260;63547;-74
2023/11/02 02:46:04;;;;;;;14.10;12.10;;;;;;;10.65;100.00;100385.98;105396;1260;71679;-73
2023/11/02 02:48:33;;;;;;;18.60;12.50;;;;;;;10.62;100.00;100388.48;105400;1257;60922;-74
2023/11/02 02:51:02;;;;;;;13.40;11.20;;;;;;;10.57;100.00;100388.05;105523;1262;60293;-73
2023/11/02 02:53:31;;;;;;;13.70;12.30;;;;;;;10.52;100.00;100391.22;105412;1263;72916;-73
2023/11/02 02:56:03;;;;;;;13.10;11.50;;;;;;;10.46;100.00;100395.24;105977;1251;61723;-76
2023/11/02 02:58:38;;;;;;;15.40;12.40;;;;;;;10.41;100.00;100396.08;105983;1254;71568;-74
2023/11/02 03:01:05;;;;;;;21.10;14.00;;;;;;;10.36;100.00;100396.77;105991;1251;61697;-73
2023/11/02 03:03:35;;;;;;;15.70;12.60;;;;;;;10.30;100.00;100397.81;105992;1252;59992;-73
2023/11/02 03:06:05;;;;;;;16.90;14.10;;;;;;;10.26;100.00;100402.95;106097;1253;72346;-77
2023/11/02 03:08:32;;;;;;;17.10;12.50;;;;;;;10.21;100.00;100407.44;106228;1251;61456;-74
2023/11/02 03:11:01;;;;;;;16.20;12.00;;;;;;;10.16;100.00;100410.90;105909;1251;70768;-73
2023/11/02 03:13:42;;;;;;;13.40;12.10;;;;;;;10.10;100.00;100410.73;106015;1251;60571;-73
2023/11/02 03:16:11;;;;;;;13.80;11.80;;;;;;;10.06;100.00;100412.72;105978;1250;59522;-75
2023/11/02 03:18:39;;;;;;;15.00;12.20;;;;;;;10.01;100.00;100411.79;105811;1251;72125;-74
2023/11/02 03:21:07;;;;;;;16.20;13.40;;;;;;;9.97;100.00;100413.30;105990;1254;63768;-74
2023/11/02 03:24:24;;;;;;;14.00;11.80;;;;;;;9.92;100.00;100415.69;105895;1254;71386;-76
2023/11/02 03:26:57;;;;;;;13.90;11.60;;;;;;;9.86;100.00;100410.45;105728;1257;60475;-74
2023/11/02 03:29:35;;;;;;;16.20;12.20;;;;;;;9.82;100.00;100412.82;106035;1254;59715;-73
2023/11/02 03:32:12;;;;;;;15.30;11.90;;;;;;;9.78;100.00;100412.33;106022;1254;73341;-73
2023/11/02 03:35:06;;;;;;;13.80;12.40;;;;;;;9.74;100.00;100418.67;106083;1251;63637;-73
2023/11/02 03:37:40;;;;;;;17.20;14.80;;;;;;;9.69;100.00;100421.05;105645;1258;71434;-76
2023/11/02 03:40:24;;;;;;;15.50;13.90;;;;;;;9.64;100.00;100426.92;105453;1257;62180;-75
2023/11/02 03:43:18;;;;;;;16.00;11.90;;;;;;;9.60;100.00;100428.58;105269;1258;62010;-75
2023/11/02 03:46:05;;;;;;;14.00;12.30;;;;;;;9.56;100.00;100425.85;105356;1257;73100;-73
2023/11/02 03:49:04;;;;;;;18.30;13.10;;;;;;;9.51;100.00;100430.65;105533;1258;63626;-74
2023/11/02 03:52:06;;;;;;;15.60;13.90;;;;;;;9.46;100.00;100435.82;105391;1262;73185;-77
2023/11/02 03:54:57;;;;;;;17.20;14.50;;;;;;;9.42;100.00;100438.34;105307;1258;60387;-74
2023/11/02 03:57:30;;;;;;;16.30;13.90;;;;;;;9.38;100.00;100436.86;105314;1257;59563;-75
2023/11/02 04:00:20;;;;;;;15.70;13.80;;;;;;;9.34;100.00;100439.14;105244;1260;73390;-74
2023/11/02 04:02:49;;;;;;;15.00;13.00;;;;;;;9.31;100.00;100436.04;105300;1256;62637;-74
2023/11/02 04:05:20;;;;;;;20.30;14.60;;;;;;;9.28;100.00;100433.42;105410;1257;70407;-76
2023/11/02 04:07:48;;;;;;;18.60;14.30;;;;;;;9.24;100.00;100432.41;105367;1261;61673;-75
2023/11/02 04:10:15;;;;;;;19.10;14.30;;;;;;;9.21;100.00;100432.05;105408;1257;60818;-75
2023/11/02 04:13:14;;;;;;;18.50;13.80;;;;;;;9.18;100.00;100428.91;105460;1257;72995;-77
2023/11/02 04:15:42;;;;;;;16.90;13.30;;;;;;;9.15;100.00;100432.41;105872;1251;63562;-76
2023/11/02 04:18:10;;;;;;;18.20;14.70;;;;;;;9.12;100.00;100432.57;105903;1251;71846;-75
2023/11/02 04:20:38;;;;;;;20.40;15.60;;;;;;;9.09;100.00;100435.02;105976;1251;59986;-75
2023/11/02 04:23:06;;;;;;;21.00;16.50;;;;;;;9.06;100.00;100437.27;105938;1254;59698;-74
2023/11/02 04:25:34;;;;;;;26.80;16.70;;;;;;;9.04;100.00;100438.60;106051;1251;72956;-74
2023/11/02 04:28:01;;;;;;;22.30;17.30;;;;;;;9.01;100.00;100439.27;105952;1250;65630;-76
2023/11/02 04:30:31;;;;;;;22.10;16.50;;;;;;;8.98;100.00;100444.69;105825;1249;72607;-76
2023/11/02 04:32:59;;;;;;;22.80;16.80;;;;;;;8.96;100.00;100449.35;105987;1250;60555;-75
2023/11/02 04:35:26;;;;;;;23.30;17.10;;;;;;;8.94;100.00;100453.14;106044;1251;60526;-77
2023/11/02 04:38:08;;;;;;;31.50;19.20;;;;;;;8.91;100.00;100456.04;106013;1251;73880;-76
2023/11/02 04:40:36;;;;;;;24.30;17.50;;;;;;;8.89;100.00;100460.86;106015;1251;61522;-76
2023/11/02 04:43:05;;;;;;;28.10;18.30;;;;;;;8.88;100.00;100460.61;105920;1254;72293;-76
2023/11/02 04:45:34;;;;;;;29.80;17.70;;;;;;;8.86;100.00;100462.80;106002;1251;60757;-75
2023/11/02 04:48:02;;;;;;;28.60;19.10;;;;;;;8.84;100.00;100463.95;106048;1252;60354;-77
2023/11/02 04:50:31;;;;;;;27.10;18.40;;;;;;;8.83;100.00;100467.84;106038;1250;74027;-75
2023/11/02 04:53:00;;;;;;;34.10;20.20;;;;;;;8.83;100.00;100472.93;105966;1251;62488;-75
2023/11/02 04:55:28;;;;;;;34.00;21.00;;;;;;;8.82;100.00;100476.61;106137;1250;71743;-75
2023/11/02 04:57:55;;;;;;;36.30;25.40;;;;;;;8.82;100.00;100478.89;106022;1254;60437;-77
2023/11/02 05:00:23;;;;;;;43.50;28.10;;;;;;;8.83;100.00;100485.60;105915;1254;60540;-78
2023/11/02 05:02:50;;;;;;;32.80;22.50;;;;;;;8.87;100.00;100492.90;105950;1254;73935;-78
2023/11/02 05:05:19;;;;;;;36.00;21.80;;;;;;;8.91;100.00;100493.70;105966;1252;63849;-77
2023/11/02 05:07:46;;;;;;;34.20;21.70;;;;;;;8.96;100.00;100493.96;105888;1251;74882;-75
2023/11/02 05:10:14;;;;;;;40.90;24.80;;;;;;;9.02;100.00;100492.58;106001;1254;60544;-75
2023/11/02 05:12:42;;;;;;;36.00;25.00;;;;;;;9.10;100.00;100498.59;106019;1251;60539;-75
2023/11/02 05:15:11;;;;;;;43.40;26.20;;;;;;;9.18;100.00;100505.33;105928;1251;74649;-76
2023/11/02 05:17:39;;;;;;;41.90;25.50;;;;;;;9.26;100.00;100506.77;106012;1251;62235;-76
2023/11/02 05:20:07;;;;;;;34.70;24.10;;;;;;;9.34;100.00;100514.36;106049;1251;72710;-76
2023/11/02 05:22:34;;;;;;;35.60;24.60;;;;;;;9.41;100.00;100522.36;105954;1254;61719;-73
2023/11/02 05:25:02;;;;;;;30.80;21.20;;;;;;;9.45;100.00;100523.83;106019;1251;60649;-73
2023/11/02 05:27:30;;;;;;;27.30;18.90;;;;;;;9.51;100.00;100529.95;106029;1251;72639;-78
2023/11/02 05:29:58;;;;;;;21.50;17.60;;;;;;;9.57;100.00;100525.45;107170;1254;64057;-77
2023/11/02 05:32:27;;;;;;;24.20;18.00;;;;;;;9.63;100.00;100527.20;106141;1254;72495;-78
2023/11/02 05:34:54;;;;;;;22.10;17.40;;;;;;;9.69;100.00;100529.84;106108;1251;62239;-78
2023/11/02 05:37:22;;;;;;;19.30;14.50;;;;;;;9.74;100.00;100532.84;106096;1254;60783;-76
2023/11/02 05:39:50;;;;;;;14.90;13.20;;;;;;;9.78;100.00;100540.97;106062;1251;73863;-76
2023/11/02 05:42:17;;;;;;;13.60;11.60;;;;;;;9.83;100.00;100542.61;105992;1251;62434;-76
2023/11/02 05:44:45;;;;;;;13.40;11.80;;;;;;;9.88;100.00;100546.70;106048;1251;70860;-78
2023/11/02 05:47:15;;;;;;;11.90;10.70;;;;;;;9.92;100.00;100547.34;105956;1251;61606;-78
2023/11/02 05:49:42;;;;;;;14.10;10.30;;;;;;;9.95;100.00;100552.91;106097;1250;60424;-74
2023/11/02 05:52:10;;;;;;;14.40;11.30;;;;;;;9.98;100.00;100556.73;106039;1254;73971;-75
2023/11/02 05:54:39;;;;;;;16.40;11.80;;;;;;;10.01;100.00;100559.55;105959;1250;63482;-77
2023/11/02 05:57:07;;;;;;;17.80;12.90;;;;;;;10.05;100.00;100565.26;106874;1251;71427;-77
2023/11/02 05:59:35;;;;;;;16.90;12.60;;;;;;;10.10;100.00;100569.87;106067;1254;60735;-77
2023/11/02 06:14:45;;;;;;;13.70;9.80;;;;;;;10.49;100.00;100582.94;102712;1291;601000;-77
2023/11/02 06:17:12;;;;;;;12.80;10.40;;;;;;;10.56;100.00;100589.66;104833;1265;61449;-74
2023/11/02 06:19:40;;;;;;;16.70;11.90;;;;;;;10.66;100.00;100591.73;105207;1260;59365;-75
2023/11/02 06:22:08;;;;;;;18.80;15.20;;;;;;;10.72;100.00;100595.91;105178;1260;72301;-76
2023/11/02 06:24:37;;;;;;;16.40;13.80;;;;;;;10.76;100.00;100595.09;105093;1259;63939;-76
2023/11/02 06:27:05;;;;;;;12.30;10.60;;;;;;;10.83;100.00;100596.28;105252;1261;72700;-76
2023/11/02 06:29:33;;;;;;;17.90;12.50;;;;;;;10.92;100.00;100601.65;105238;1260;235536;-76
2023/11/02 06:32:00;;;;;;;19.40;12.30;;;;;;;11.02;100.00;100605.09;105719;1253;60122;-75
2023/11/02 06:34:28;;;;;;;13.90;10.60;;;;;;;11.13;100.00;100608.27;105774;1257;71016;-73
2023/11/02 06:36:56;;;;;;;13.00;11.70;;;;;;;11.26;100.00;100608.85;105546;1253;62605;-74
2023/11/02 06:39:23;;;;;;;14.50;12.10;;;;;;;11.38;100.00;100611.75;105715;1257;72672;-76
2023/11/02 06:41:51;;;;;;;16.80;12.40;;;;;;;11.50;100.00;100614.00;105790;1253;60585;-75
2023/11/02 06:44:22;;;;;;;18.40;13.50;;;;;;;11.59;100.00;100616.02;105718;1259;59810;-76
2023/11/02 06:46:51;;;;;;;17.90;14.40;;;;;;;11.66;100.00;100616.07;105696;1257;73059;-76
2023/11/02 06:49:19;;;;;;;18.90;14.90;;;;;;;11.75;100.00;100614.64;109466;1253;64286;-73
2023/11/02 06:51:47;;;;;;;17.50;13.70;;;;;;;11.81;100.00;100616.15;109630;1252;73009;-75
2023/11/02 06:54:14;;;;;;;17.30;12.70;;;;;;;11.86;100.00;100617.28;109572;1253;61770;-73
2023/11/02 06:56:42;;;;;;;15.50;11.80;;;;;;;11.88;100.00;100616.26;109642;1251;58826;-76
2023/11/02 06:59:09;;;;;;;15.20;10.90;;;;;;;11.90;100.00;100620.02;109603;1253;71839;-76
2023/11/02 07:01:39;;;;;;;11.80;10.30;;;;;;;11.94;100.00;100617.95;109613;1251;62414;-76
2023/11/02 07:04:07;;;;;;;11.10;10.00;;;;;;;11.98;100.00;100617.19;109547;1252;73694;-73
2023/11/02 07:06:34;;;;;;;12.80;9.60;;;;;;;11.99;100.00;100614.16;109593;1252;60787;-73
2023/11/02 07:09:03;;;;;;;10.80;9.50;;;;;;;12.02;100.00;100608.52;109627;1251;60090;-73
2023/11/02 07:11:30;;;;;;;12.90;11.50;;;;;;;12.07;100.00;100608.52;109604;1252;73116;-73
2023/11/02 07:13:58;;;;;;;20.10;13.30;;;;;;;12.12;100.00;100609.63;109576;1252;64162;-73
2023/11/02 07:16:28;;;;;;;18.70;12.70;;;;;;;12.13;100.00;100612.14;109610;1252;72741;-73
2023/11/02 07:18:58;;;;;;;15.90;14.20;;;;;;;12.12;100.00;100612.94;109555;1253;60484;-75
2023/11/02 07:21:25;;;;;;;24.50;14.30;;;;;;;12.10;100.00;100616.75;109615;1252;58758;-76
2023/11/02 07:23:53;;;;;;;22.30;15.30;;;;;;;12.10;100.00;100618.70;109598;1251;71818;-76
2023/11/02 07:26:21;;;;;;;19.00;15.40;;;;;;;12.10;100.00;100617.95;109603;1251;65983;-74
2023/11/02 07:28:48;;;;;;;26.70;18.10;;;;;;;12.11;100.00;100616.67;109622;1251;72755;-73
2023/11/02 07:31:16;;;;;;;26.60;18.80;;;;;;;12.12;100.00;100620.64;109573;1253;60382;-75
2023/11/02 07:33:43;;;;;;;27.90;18.40;;;;;;;12.13;100.00;100620.24;109565;1252;59416;-75
2023/11/02 07:36:12;;;;;;;25.20;17.90;;;;;;;12.12;100.00;100620.85;109603;1252;75732;-75
2023/11/02 07:38:52;;;;;;;24.50;17.70;;;;;;;12.13;100.00;100622.55;109585;1253;63651;-76
2023/11/02 07:41:20;;;;;;;25.30;17.90;;;;;;;12.14;100.00;100624.02;109608;1252;73776;-75
2023/11/02 07:43:48;;;;;;;26.10;17.70;;;;;;;12.15;100.00;100625.33;109596;1253;60526;-74
2023/11/02 07:46:15;;;;;;;23.50;18.70;;;;;;;12.18;100.00;100628.65;109586;1252;59188;-75
2023/11/02 07:48:43;;;;;;;26.00;18.90;;;;;;;12.21;100.00;100634.23;109623;1252;71821;-74
2023/11/02 07:51:14;;;;;;;29.00;19.60;;;;;;;12.21;100.00;100634.20;109573;1251;62215;-74
2023/11/02 07:53:42;;;;;;;34.40;22.50;;;;;;;12.23;100.00;100634.45;109589;1253;72725;-75
2023/11/02 07:56:09;;;;;;;27.90;20.80;;;;;;;12.26;100.00;100636.55;109566;1253;61611;-75
2023/11/02 07:58:42;;;;;;;31.70;20.40;;;;;;;12.31;100.00;100642.17;109616;1252;58730;-74
2023/11/02 08:01:10;;;;;;;26.80;19.80;;;;;;;12.38;100.00;100643.30;109588;1254;73077;-75
2023/11/02 08:03:37;;;;;;;33.70;19.80;;;;;;;12.42;100.00;100644.04;109565;1252;62262;-74
2023/11/02 08:06:05;;;;;;;25.80;19.20;;;;;;;12.47;100.00;100642.37;109580;1251;72864;-75
2023/11/02 08:08:34;;;;;;;27.30;17.10;;;;;;;12.54;100.00;100641.84;109389;1252;60508;-75
2023/11/02 08:11:01;;;;;;;30.90;17.20;;;;;;;12.59;100.00;100641.85;109611;1252;58205;-78
2023/11/02 08:13:30;;;;;;;26.50;16.30;;;;;;;12.63;100.00;100645.05;109576;1251;73140;-77
2023/11/02 08:15:58;;;;;;;27.60;15.80;;;;;;;12.68;100.00;100648.31;109621;1253;62544;-74
2023/11/02 08:18:26;;;;;;;26.50;16.50;;;;;;;12.70;100.00;100654.44;109568;1252;72638;-75
2023/11/02 08:20:56;;;;;;;29.20;16.70;;;;;;;12.71;100.00;100652.60;109568;1257;63551;-77
2023/11/02 08:23:24;;;;;;;36.40;20.40;;;;;;;12.74;100.00;100658.39;109655;1251;60215;-73
2023/11/02 08:26:33;;;;;;;38.70;22.80;;;;;;;12.77;100.00;100656.90;109523;1252;72207;-73
2023/11/02 08:29:01;;;;;;;40.20;24.30;;;;;;;12.83;100.00;100663.70;109579;1253;62443;-77
2023/11/02 08:31:29;;;;;;;39.50;24.10;;;;;;;12.90;100.00;100664.86;109574;1252;71614;-74
2023/11/02 08:33:57;;;;;;;36.20;24.40;;;;;;;12.95;100.00;100660.60;109579;1252;61669;-73
2023/11/02 08:36:31;;;;;;;32.30;21.90;;;;;;;13.01;100.00;100658.23;109559;1253;58827;-74
2023/11/02 08:38:58;;;;;;;32.90;21.50;;;;;;;13.10;100.00;100655.20;109600;1252;73140;-76
2023/11/02 08:41:30;;;;;;;33.30;20.60;;;;;;;13.17;100.00;100657.67;109571;1253;62280;-74
2023/11/02 08:43:59;;;;;;;35.50;21.00;;;;;;;13.28;100.00;100654.47;109605;1251;72788;-75
2023/11/02 08:46:26;;;;;;;31.60;20.60;;;;;;;13.55;100.00;100649.05;109546;1253;60444;-73
2023/11/02 08:48:54;;;;;;;25.80;18.30;;;;;;;14.06;100.00;100646.88;109586;1251;60728;-76
2023/11/02 08:51:23;;;;;;;24.00;15.50;;;;;;;14.53;100.00;100644.98;109576;1253;73117;-73
2023/11/02 08:53:51;;;;;;;19.20;12.90;;;;;;;15.09;100.00;100644.57;109585;1252;63430;-74
2023/11/02 08:56:19;;;;;;;19.70;14.10;;;;;;;15.77;100.00;100641.39;109593;1253;72642;-75
2023/11/02 08:58:51;;;;;;;25.90;16.10;;;;;;;16.47;100.00;100640.05;109580;1253;62633;-74
2023/11/02 09:01:20;;;;;;;17.90;13.70;;;;;;;17.13;100.00;100638.33;109576;1252;61976;-73
2023/11/02 09:03:50;;;;;;;14.50;12.20;;;;;;;17.60;100.00;100635.59;109527;1252;73067;-74
2023/11/02 09:06:22;;;;;;;14.40;11.10;;;;;;;17.87;96.94;100635.34;109584;1252;64790;-75
2023/11/02 09:08:50;;;;;;;15.10;10.00;;;;;;;17.88;94.21;100630.44;109586;1253;72509;-74
2023/11/02 09:11:18;;;;;;;19.00;11.30;;;;;;;17.83;88.90;100631.05;109574;1253;58127;-76
2023/11/02 09:13:46;;;;;;;12.10;8.60;;;;;;;17.77;87.23;100630.30;109613;1251;58630;-76
2023/11/02 09:16:14;;;;;;;16.40;10.30;;;;;;;17.96;84.81;100628.14;109596;1251;71839;-74
2023/11/02 09:18:42;;;;;;;16.60;10.00;;;;;;;18.30;76.63;100631.56;109567;1251;62406;-75
2023/11/02 09:21:09;;;;;;;12.00;7.70;;;;;;;18.68;73.30;100628.73;109587;1251;74008;-78
2023/11/02 09:23:37;;;;;;;7.80;5.40;;;;;;;19.15;70.37;100631.21;109540;1252;59597;-74
2023/11/02 09:26:05;;;;;;;9.90;5.50;;;;;;;19.44;64.16;100630.00;109607;1252;62008;-76
2023/11/02 09:28:36;;;;;;;4.80;3.70;;;;;;;19.42;60.07;100627.70;109589;1256;75020;-77
2023/11/02 09:31:04;;;;;;;3.40;2.40;;;;;;;19.31;60.65;100626.33;109583;1251;62941;-74
2023/11/02 09:33:34;;;;;;;3.40;1.90;;;;;;;19.31;60.88;100625.26;109579;1253;72989;-77
2023/11/02 09:36:01;;;;;;;4.00;2.60;;;;;;;19.42;60.63;100629.17;109604;1253;60192;-74
2023/11/02 09:38:29;;;;;;;8.10;4.60;;;;;;;19.49;58.68;100632.88;109564;1252;61159;-74
2023/11/02 09:40:57;;;;;;;9.60;7.60;;;;;;;19.70;57.53;100631.86;109579;1253;71586;-74
2023/11/02 09:43:24;;;;;;;10.60;4.60;;;;;;;19.87;56.33;100632.70;109587;1252;62490;-76
2023/11/02 09:45:52;;;;;;;7.50;5.30;;;;;;;19.83;55.76;100628.66;109377;1254;74914;-75
2023/11/02 09:48:19;;;;;;;8.70;5.10;;;;;;;19.68;55.49;100627.83;109431;1252;60212;-75
2023/11/02 09:50:47;;;;;;;8.60;5.10;;;;;;;19.41;54.69;100623.91;109589;1253;60121;-73
2023/11/02 09:53:15;;;;;;;10.00;4.70;;;;;;;19.07;56.24;100623.98;109357;1252;72449;-75
2023/11/02 09:55:43;;;;;;;10.10;5.80;;;;;;;18.85;57.37;100624.29;109353;1252;63499;-75
2023/11/02 09:58:10;;;;;;;9.60;5.20;;;;;;;18.66;56.52;100621.67;109272;1253;74640;-74
2023/11/02 10:00:38;;;;;;;9.50;6.00;;;;;;;18.47;56.91;100619.84;109359;1253;60110;-73
2023/11/02 10:03:06;;;;;;;13.20;7.60;;;;;;;18.47;58.89;100618.14;109420;1252;58775;-72
2023/11/02 10:05:34;;;;;;;7.90;5.60;;;;;;;18.66;58.53;100615.10;109567;1252;74736;-75
2023/11/02 10:08:01;;;;;;;7.40;5.30;;;;;;;19.01;56.42;100612.34;109606;1252;64985;-73
2023/11/02 10:10:31;;;;;;;12.40;5.70;;;;;;;19.41;53.84;100612.00;109648;1251;72729;-74
2023/11/02 10:13:00;;;;;;;11.20;7.70;;;;;;;19.84;52.89;100608.94;109580;1253;58858;-76
2023/11/02 10:15:29;;;;;;;16.40;8.60;;;;;;;20.27;51.69;100609.89;109659;1256;60979;-75
2023/11/02 10:17:56;;;;;;;7.90;6.10;;;;;;;20.69;48.98;100617.77;109585;1251;72288;-74
2023/11/02 10:20:25;;;;;;;7.40;6.10;;;;;;;21.01;46.45;100612.27;109526;1251;63720;-75
2023/11/02 10:23:14;;;;;;;5.90;5.20;;;;;;;21.26;44.26;100605.56;109588;1251;75035;-73
2023/11/02 10:25:42;;;;;;;2.80;2.40;;;;;;;21.46;43.23;100607.45;109546;1252;60504;-75
2023/11/02 10:28:13;;;;;;;3.60;1.30;;;;;;;21.56;42.28;100600.87;109659;1251;60896;-75
2023/11/02 10:30:41;;;;;;;3.70;1.70;;;;;;;21.68;41.83;100608.83;109637;1251;74531;-74
2023/11/02 10:33:08;;;;;;;1.80;1.40;;;;;;;21.84;42.07;100605.02;109586;1251;63096;-74
2023/11/02 10:35:39;;;;;;;2.80;2.10;;;;;;;21.95;41.57;100608.92;109638;1251;72043;-74
2023/11/02 10:38:09;;;;;;;3.70;2.10;;;;;;;22.03;40.00;100611.69;109589;1253;60558;-74
2023/11/02 10:40:43;;;;;;;2.40;1.70;;;;;;;22.04;40.15;100614.20;109653;1251;59626;-74
2023/11/02 10:43:21;;;;;;;2.50;1.70;;;;;;;22.06;39.01;100613.13;109651;1251;74708;-75
2023/11/02 10:45:50;;;;;;;3.90;1.80;;;;;;;21.95;39.48;100608.01;109625;1253;62671;-74
2023/11/02 10:48:18;;;;;;;2.40;1.90;;;;;;;21.82;39.60;100607.17;109564;1251;72691;-74
2023/11/02 10:50:47;;;;;;;4.00;2.80;;;;;;;21.69;39.37;100608.34;109619;1253;61178;-75
2023/11/02 10:53:36;;;;;;;3.10;2.00;;;;;;;21.50;40.00;100610.86;109614;1252;62386;-75
2023/11/02 10:56:08;;;;;;;1.80;1.70;;;;;;;21.01;39.47;100616.70;109653;1251;73440;-74
2023/11/02 10:58:36;;;;;;;3.80;3.40;;;;;;;20.44;40.27;100618.30;109614;1251;62290;-73
2023/11/02 11:01:04;;;;;;;6.50;4.10;;;;;;;19.88;40.60;100621.98;109358;1251;73391;-76
2023/11/02 11:03:31;;;;;;;7.70;4.00;;;;;;;19.33;42.25;100617.56;109583;1251;60072;-73
2023/11/02 11:05:59;;;;;;;8.60;4.50;;;;;;;18.96;44.06;100613.88;109708;1251;59920;-74
2023/11/02 11:08:38;;;;;;;4.30;2.70;;;;;;;18.69;46.24;100617.14;109602;1251;74751;-73
2023/11/02 11:11:09;;;;;;;7.80;3.80;;;;;;;18.47;45.55;100614.59;109631;1251;64768;-73
2023/11/02 11:13:36;;;;;;;10.50;5.90;;;;;;;18.24;47.47;100612.16;109544;1251;72457;-75
2023/11/02 11:16:07;;;;;;;6.70;4.70;;;;;;;18.07;48.34;100607.70;109380;1251;59211;-73
2023/11/02 11:18:38;;;;;;;6.60;4.80;;;;;;;17.96;48.68;100605.70;109618;1251;58765;-75
2023/11/02 11:21:06;;;;;;;9.80;5.20;;;;;;;17.88;49.36;100605.86;109544;1256;73106;-75
2023/11/02 11:23:36;;;;;;;10.00;4.10;;;;;;;17.75;49.71;100603.77;109439;1251;62806;-73
2023/11/02 11:26:04;;;;;;;5.10;4.20;;;;;;;17.61;50.32;100599.06;109652;1252;73901;-74
2023/11/02 11:28:34;;;;;;;6.00;4.60;;;;;;;17.55;52.55;100598.59;109708;1252;60601;-76
2023/11/02 11:31:02;;;;;;;9.50;4.90;;;;;;;17.54;52.92;100594.41;109617;1251;58252;-75
2023/11/02 11:33:48;;;;;;;10.00;4.50;;;;;;;17.53;52.58;100596.12;109638;1252;73763;-76